createdAt,value
2023-02-21T00:00:36.319Z,4.97
2023-02-21T00:02:28.101Z,5.00
2023-02-21T00:04:20.132Z,4.33
2023-02-21T00:06:12.075Z,4.33
2023-02-21T00:08:04.064Z,4.83
2023-02-21T00:09:56.465Z,5.03
2023-02-21T00:11:48.396Z,4.80
2023-02-21T00:13:40.604Z,5.60
2023-02-21T00:15:32.530Z,5.20
2023-02-21T00:17:24.503Z,5.00
2023-02-21T00:19:16.811Z,4.57
2023-02-21T00:21:08.882Z,4.87
2023-02-21T00:22:59.218Z,4.40
2023-02-21T00:24:49.770Z,4.93
2023-02-21T00:26:41.265Z,5.63
2023-02-21T00:28:31.639Z,5.57
2023-02-21T00:30:23.582Z,5.50
2023-02-21T00:32:15.714Z,4.83
2023-02-21T00:34:07.627Z,5.07
2023-02-21T00:35:58.355Z,4.03
2023-02-21T00:37:48.914Z,4.97
2023-02-21T00:39:39.951Z,4.40
2023-02-21T00:41:31.359Z,6.40
2023-02-21T00:43:21.774Z,5.43
2023-02-21T00:45:12.194Z,5.40
2023-02-21T00:47:02.891Z,5.03
2023-02-21T00:48:54.587Z,5.37
2023-02-21T00:50:44.965Z,4.70
2023-02-21T00:52:35.375Z,5.67
2023-02-21T00:54:25.997Z,4.77
2023-02-21T00:56:16.851Z,4.53
2023-02-21T00:58:07.772Z,6.17
2023-02-21T00:59:58.616Z,5.20
2023-02-21T01:01:49.366Z,5.53
2023-02-21T01:03:41.262Z,5.13
2023-02-21T01:05:33.403Z,7.17
2023-02-21T01:07:23.686Z,4.77
2023-02-21T01:09:14.160Z,5.93
2023-02-21T01:11:04.496Z,7.40
2023-02-21T01:12:55.270Z,5.57
2023-02-21T01:14:47.206Z,4.90
2023-02-21T01:16:37.639Z,4.97
2023-02-21T01:18:28.013Z,5.80
2023-02-21T01:20:19.840Z,3.50
2023-02-21T01:22:11.749Z,4.27
2023-02-21T01:24:02.200Z,4.07
2023-02-21T01:25:52.653Z,4.17
2023-02-21T01:27:43.207Z,3.50
2023-02-21T01:29:33.926Z,3.97
2023-02-21T01:31:24.431Z,3.70
2023-02-21T01:33:15.312Z,3.50
2023-02-21T01:35:06.146Z,3.77
2023-02-21T01:36:59.642Z,3.77
2023-02-21T01:38:53.335Z,3.60
2023-02-21T01:40:44.376Z,3.50
2023-02-21T01:42:36.804Z,4.00
2023-02-21T01:44:54.693Z,3.73
2023-02-21T01:46:45.037Z,3.00
2023-02-21T01:48:39.341Z,4.70
2023-02-21T01:50:35.700Z,3.47
2023-02-21T01:52:26.346Z,3.33
2023-02-21T01:54:17.841Z,3.57
2023-02-21T01:56:08.999Z,4.77
2023-02-21T01:58:00.122Z,3.90
2023-02-21T01:59:52.340Z,4.63
2023-02-21T02:01:54.222Z,4.10
2023-02-21T02:03:45.616Z,4.43
2023-02-21T02:05:37.482Z,4.40
2023-02-21T02:07:28.763Z,3.80
2023-02-21T02:09:32.638Z,5.87
2023-02-21T02:11:29.406Z,4.13
2023-02-21T02:13:32.810Z,3.43
2023-02-21T02:15:23.591Z,3.73
2023-02-21T02:17:06.761Z,3.90
2023-02-21T02:19:06.128Z,5.90
2023-02-21T02:21:12.898Z,4.60
2023-02-21T02:23:15.938Z,4.87
2023-02-21T02:24:59.398Z,4.87
2023-02-21T02:27:04.708Z,5.10
2023-02-21T02:28:53.746Z,3.77
2023-02-21T02:31:09.214Z,3.57
2023-02-21T02:33:10.504Z,4.10
2023-02-21T02:35:01.103Z,5.10
2023-02-21T02:36:40.103Z,4.90
2023-02-21T02:38:20.732Z,3.97
2023-02-21T02:40:01.430Z,3.63
2023-02-21T02:41:47.406Z,4.30
2023-02-21T02:43:27.815Z,4.30
2023-02-21T02:45:03.541Z,4.07
2023-02-21T02:46:40.594Z,4.77
2023-02-21T02:48:19.381Z,4.07
2023-02-21T02:49:53.410Z,3.67
2023-02-21T02:51:28.955Z,3.63
2023-02-21T02:53:05.390Z,3.70
2023-02-21T02:54:39.552Z,4.60
2023-02-21T02:56:14.729Z,3.77
2023-02-21T02:57:49.160Z,3.83
2023-02-21T02:59:27.623Z,4.77
2023-02-21T03:01:18.670Z,4.57
2023-02-21T03:03:07.531Z,3.60
2023-02-21T03:05:06.147Z,4.43
2023-02-21T03:06:55.497Z,3.90
2023-02-21T03:08:34.360Z,4.07
2023-02-21T03:10:18.758Z,5.23
2023-02-21T03:12:01.224Z,5.43
2023-02-21T03:13:41.975Z,4.00
2023-02-21T03:15:18.207Z,3.50
2023-02-21T03:16:56.662Z,3.57
2023-02-21T03:18:32.767Z,4.23
2023-02-21T03:20:07.838Z,7.03
2023-02-21T03:21:44.885Z,4.00
2023-02-21T03:23:20.858Z,6.13
2023-02-21T03:24:55.695Z,4.07
2023-02-21T03:26:31.533Z,5.20
2023-02-21T03:28:13.793Z,5.33
2023-02-21T03:29:49.360Z,4.93
2023-02-21T03:31:27.336Z,4.13
2023-02-21T03:33:01.024Z,5.90
2023-02-21T03:34:34.716Z,5.87
2023-02-21T03:36:09.939Z,5.47
2023-02-21T03:37:43.785Z,5.57
2023-02-21T03:39:18.249Z,4.83
2023-02-21T03:40:51.984Z,4.90
2023-02-21T03:42:25.105Z,4.77
2023-02-21T03:43:58.285Z,3.90
2023-02-21T03:45:31.554Z,3.50
2023-02-21T03:47:14.762Z,4.43
2023-02-21T03:48:47.966Z,4.40
2023-02-21T03:50:27.507Z,6.07
2023-02-21T03:52:00.739Z,4.80
2023-02-21T03:53:33.985Z,3.80
2023-02-21T03:55:09.361Z,4.50
2023-02-21T03:56:42.678Z,5.77
2023-02-21T03:58:30.022Z,5.17
2023-02-21T04:00:03.510Z,4.50
2023-02-21T04:01:37.604Z,4.77
2023-02-21T04:03:10.992Z,4.83
2023-02-21T04:04:53.265Z,5.77
2023-02-21T04:06:27.830Z,4.37
2023-02-21T04:08:02.089Z,4.90
2023-02-21T04:09:35.238Z,5.43
2023-02-21T04:11:08.921Z,4.00
2023-02-21T04:12:43.001Z,4.50
2023-02-21T04:14:16.488Z,4.10
2023-02-21T04:15:49.944Z,5.37
2023-02-21T04:17:23.589Z,5.13
2023-02-21T04:18:58.531Z,4.90
2023-02-21T04:20:31.982Z,4.10
2023-02-21T04:22:06.390Z,4.37
2023-02-21T04:23:39.475Z,6.10
2023-02-21T04:25:13.229Z,6.10
2023-02-21T04:26:54.396Z,4.97
2023-02-21T04:28:29.203Z,4.70
2023-02-21T04:30:02.346Z,4.97
2023-02-21T04:31:36.005Z,7.33
2023-02-21T04:33:14.030Z,4.97
2023-02-21T04:34:47.163Z,5.93
2023-02-21T04:36:20.278Z,4.77
2023-02-21T04:37:53.424Z,5.87
2023-02-21T04:39:26.542Z,5.70
2023-02-21T04:40:58.627Z,5.43
2023-02-21T04:42:33.102Z,4.80
2023-02-21T04:44:07.240Z,5.70
2023-02-21T04:45:40.883Z,5.90
2023-02-21T04:47:14.035Z,4.97
2023-02-21T04:48:48.870Z,5.63
2023-02-21T04:50:21.959Z,5.47
2023-02-21T04:51:55.441Z,5.87
2023-02-21T04:53:27.561Z,6.33
2023-02-21T04:55:00.887Z,5.57
2023-02-21T04:56:34.075Z,7.20
2023-02-21T04:58:08.562Z,5.10
2023-02-21T04:59:41.677Z,6.10
2023-02-21T05:01:16.319Z,6.07
2023-02-21T05:02:49.699Z,5.67
2023-02-21T05:04:21.871Z,5.93
2023-02-21T05:05:54.991Z,6.93
2023-02-21T05:07:28.094Z,6.73
2023-02-21T05:09:00.590Z,6.03
2023-02-21T05:10:44.888Z,5.80
2023-02-21T05:12:18.582Z,5.50
2023-02-21T05:13:53.366Z,8.37
2023-02-21T05:15:26.647Z,6.13
2023-02-21T05:16:59.811Z,6.07
2023-02-21T05:18:34.578Z,6.70
2023-02-21T05:20:11.585Z,7.33
2023-02-21T05:21:44.802Z,7.70
2023-02-21T05:23:18.953Z,6.60
2023-02-21T05:24:52.083Z,8.30
2023-02-21T05:26:27.856Z,7.83
2023-02-21T05:28:00.975Z,8.50
2023-02-21T05:29:35.384Z,7.27
2023-02-21T05:31:09.205Z,7.63
2023-02-21T05:32:42.868Z,6.37
2023-02-21T05:34:17.460Z,7.37
2023-02-21T05:35:51.185Z,7.57
2023-02-21T05:37:24.340Z,7.03
2023-02-21T05:38:57.599Z,7.30
2023-02-21T05:40:30.926Z,7.80
2023-02-21T05:42:04.226Z,7.47
2023-02-21T05:43:37.319Z,7.70
2023-02-21T05:45:12.773Z,6.93
2023-02-21T05:46:46.604Z,6.30
2023-02-21T05:48:19.706Z,8.33
2023-02-21T05:49:52.858Z,6.73
2023-02-21T05:51:27.218Z,7.43
2023-02-21T05:53:01.197Z,7.23
2023-02-21T05:54:34.442Z,7.13
2023-02-21T05:56:10.262Z,9.90
2023-02-21T05:57:43.661Z,8.53
2023-02-21T05:59:18.945Z,9.23
2023-02-21T06:00:54.094Z,8.00
2023-02-21T06:02:27.206Z,8.23
2023-02-21T06:04:00.306Z,8.07
2023-02-21T06:05:33.465Z,8.63
2023-02-21T06:07:06.640Z,8.47
2023-02-21T06:08:47.377Z,9.20
2023-02-21T06:10:21.193Z,7.87
2023-02-21T06:11:57.752Z,9.63
2023-02-21T06:13:32.924Z,6.97
2023-02-21T06:15:07.475Z,10.20
2023-02-21T06:16:41.960Z,8.87
2023-02-21T06:18:15.777Z,7.93
2023-02-21T06:19:48.877Z,9.67
2023-02-21T06:21:22.282Z,8.33
2023-02-21T06:22:55.436Z,7.90
2023-02-21T06:24:28.524Z,8.23
2023-02-21T06:26:01.624Z,9.77
2023-02-21T06:27:34.731Z,8.70
2023-02-21T06:29:08.207Z,8.33
2023-02-21T06:30:41.388Z,8.37
2023-02-21T06:32:15.938Z,8.47
2023-02-21T06:33:50.191Z,9.13
2023-02-21T06:35:23.278Z,9.43
2023-02-21T06:36:57.212Z,8.83
2023-02-21T06:38:30.314Z,8.83
2023-02-21T06:40:05.254Z,7.93
2023-02-21T06:41:38.646Z,8.77
2023-02-21T06:43:11.845Z,8.23
2023-02-21T06:44:45.510Z,9.07
2023-02-21T06:46:19.249Z,9.27
2023-02-21T06:47:54.459Z,8.63
2023-02-21T06:49:28.119Z,8.53
2023-02-21T06:51:01.258Z,8.17
2023-02-21T06:52:34.356Z,8.63
2023-02-21T06:54:08.447Z,10.20
2023-02-21T06:55:41.927Z,9.10
2023-02-21T06:57:15.533Z,11.17
2023-02-21T06:58:48.665Z,10.30
2023-02-21T07:00:22.207Z,11.70
2023-02-21T07:01:55.420Z,10.53
2023-02-21T07:03:30.860Z,8.53
2023-02-21T07:05:04.004Z,8.40
2023-02-21T07:06:37.069Z,8.60
2023-02-21T07:08:10.229Z,10.33
2023-02-21T07:09:43.434Z,9.23
2023-02-21T07:11:17.582Z,10.03
2023-02-21T07:12:50.737Z,9.50
2023-02-21T07:14:23.855Z,10.50
2023-02-21T07:15:56.958Z,8.13
2023-02-21T07:17:30.117Z,9.47
2023-02-21T07:19:04.628Z,9.40
2023-02-21T07:22:10.985Z,8.87
2023-02-21T07:23:44.913Z,10.53
2023-02-21T07:25:21.459Z,7.97
2023-02-21T07:26:54.970Z,10.57
2023-02-21T07:28:28.191Z,8.60
2023-02-21T07:30:01.418Z,9.83
2023-02-21T07:31:34.845Z,10.10
2023-02-21T07:33:08.138Z,9.47
2023-02-21T07:34:42.740Z,10.90
2023-02-21T07:36:16.182Z,10.87
2023-02-21T07:37:49.310Z,9.00
2023-02-21T07:39:22.461Z,8.27
2023-02-21T07:40:57.221Z,9.60
2023-02-21T07:42:30.354Z,10.30
2023-02-21T07:44:04.072Z,7.47
2023-02-21T07:45:37.226Z,8.50
2023-02-21T07:47:11.305Z,9.13
2023-02-21T07:48:44.383Z,11.17
2023-02-21T07:50:20.326Z,10.13
2023-02-21T07:51:53.546Z,9.73
2023-02-21T07:53:26.744Z,10.67
2023-02-21T07:54:59.887Z,8.53
2023-02-21T07:56:33.134Z,9.57
2023-02-21T07:58:06.413Z,9.40
2023-02-21T07:59:39.574Z,9.97
2023-02-21T08:01:12.978Z,10.17
2023-02-21T08:02:49.761Z,9.80
2023-02-21T08:04:24.114Z,9.17
2023-02-21T08:05:59.450Z,9.07
2023-02-21T08:07:33.287Z,10.07
2023-02-21T08:09:07.151Z,10.23
2023-02-21T08:10:40.291Z,10.87
2023-02-21T08:12:13.428Z,9.10
2023-02-21T08:13:46.538Z,10.03
2023-02-21T08:15:20.113Z,9.97
2023-02-21T08:16:53.581Z,9.43
2023-02-21T08:18:26.896Z,11.50
2023-02-21T08:19:59.970Z,11.87
2023-02-21T08:21:34.484Z,12.93
2023-02-21T08:23:07.541Z,10.10
2023-02-21T08:24:40.682Z,9.80
2023-02-21T08:26:13.799Z,10.93
2023-02-21T08:27:53.428Z,10.53
2023-02-21T08:29:26.568Z,9.33
2023-02-21T08:30:59.675Z,11.37
2023-02-21T08:32:32.832Z,12.33
2023-02-21T08:34:07.138Z,10.13
2023-02-21T08:35:40.365Z,9.57
2023-02-21T08:37:17.545Z,11.30
2023-02-21T08:38:50.778Z,10.10
2023-02-21T08:40:25.476Z,10.60
2023-02-21T08:41:58.704Z,8.63
2023-02-21T08:43:31.809Z,10.37
2023-02-21T08:45:05.365Z,10.10
2023-02-21T08:46:39.541Z,10.03
2023-02-21T08:48:13.020Z,8.10
2023-02-21T08:49:47.557Z,9.10
2023-02-21T08:51:26.080Z,12.23
2023-02-21T08:53:01.086Z,10.93
2023-02-21T08:54:34.218Z,10.37
2023-02-21T08:56:07.572Z,14.07
2023-02-21T08:57:40.661Z,11.27
2023-02-21T08:59:13.749Z,9.13
2023-02-21T09:00:47.102Z,10.73
2023-02-21T09:02:22.773Z,10.07
2023-02-21T09:03:55.859Z,9.63
2023-02-21T09:05:31.180Z,11.53
2023-02-21T09:07:04.256Z,11.27
2023-02-21T09:08:39.158Z,11.50
2023-02-21T09:10:13.376Z,9.63
2023-02-21T09:11:48.425Z,9.30
2023-02-21T09:13:21.533Z,9.13
2023-02-21T09:14:54.609Z,9.47
2023-02-21T09:16:27.810Z,8.73
2023-02-21T09:18:00.994Z,9.20
2023-02-21T09:19:34.212Z,8.33
2023-02-21T09:21:08.509Z,7.73
2023-02-21T09:22:44.945Z,9.20
2023-02-21T09:24:25.134Z,9.13
2023-02-21T09:25:58.565Z,7.90
2023-02-21T09:27:37.462Z,7.33
2023-02-21T09:29:12.219Z,6.83
2023-02-21T09:30:46.219Z,9.00
2023-02-21T09:32:19.390Z,8.57
2023-02-21T09:33:52.530Z,7.77
2023-02-21T09:35:25.677Z,7.47
2023-02-21T09:36:59.733Z,7.80
2023-02-21T09:38:32.837Z,7.87
2023-02-21T09:40:13.485Z,9.83
2023-02-21T09:41:47.168Z,8.13
2023-02-21T09:43:26.098Z,8.33
2023-02-21T09:44:59.685Z,8.13
2023-02-21T09:46:37.258Z,8.83
2023-02-21T09:48:15.116Z,7.60
2023-02-21T09:49:49.400Z,9.60
2023-02-21T09:51:22.587Z,8.07
2023-02-21T09:52:58.469Z,7.13
2023-02-21T09:54:34.913Z,8.53
2023-02-21T09:56:14.915Z,8.93
2023-02-21T09:57:48.012Z,8.57
2023-02-21T09:59:21.243Z,8.33
2023-02-21T10:00:57.571Z,8.37
2023-02-21T10:02:43.198Z,9.73
2023-02-21T10:04:25.876Z,8.83
2023-02-21T10:06:07.788Z,7.33
2023-02-21T10:07:46.655Z,9.13
2023-02-21T10:09:32.812Z,7.47
2023-02-21T10:11:23.397Z,8.37
2023-02-21T10:13:04.743Z,8.00
2023-02-21T10:14:55.081Z,7.60
2023-02-21T10:16:33.220Z,8.17
2023-02-21T10:18:14.200Z,8.20
2023-02-21T10:19:53.477Z,8.70
2023-02-21T10:21:31.936Z,7.53
2023-02-21T10:23:13.746Z,6.73
2023-02-21T10:24:47.119Z,7.93
2023-02-21T10:26:25.761Z,7.30
2023-02-21T10:28:00.808Z,7.23
2023-02-21T10:29:43.039Z,10.40
2023-02-21T10:31:21.452Z,8.23
2023-02-21T10:32:54.555Z,7.67
2023-02-21T10:34:29.656Z,7.17
2023-02-21T10:36:02.785Z,8.87
2023-02-21T10:37:40.753Z,9.00
2023-02-21T10:39:18.776Z,7.97
2023-02-21T10:40:54.889Z,7.93
2023-02-21T10:42:35.441Z,7.03
2023-02-21T10:44:11.980Z,7.37
2023-02-21T10:45:52.016Z,12.60
2023-02-21T10:47:33.794Z,10.07
2023-02-21T10:49:23.675Z,9.53
2023-02-21T10:51:08.764Z,10.47
2023-02-21T10:52:49.639Z,8.37
2023-02-21T10:54:24.826Z,16.70
2023-02-21T10:56:22.126Z,12.60
2023-02-21T10:57:58.585Z,17.20
2023-02-21T10:59:34.394Z,7.93
2023-02-21T11:01:18.382Z,8.30
2023-02-21T11:02:56.398Z,7.20
2023-02-21T11:04:34.548Z,7.07
2023-02-21T11:06:08.502Z,8.90
2023-02-21T11:07:42.809Z,6.97
2023-02-21T11:09:31.585Z,7.17
2023-02-21T11:11:04.861Z,7.50
2023-02-21T11:12:37.999Z,7.70
2023-02-21T11:14:27.056Z,7.53
2023-02-21T11:16:11.644Z,8.53
2023-02-21T11:17:45.708Z,8.23
2023-02-21T11:19:18.808Z,7.70
2023-02-21T11:20:53.717Z,7.60
2023-02-21T11:22:37.682Z,7.37
2023-02-21T11:24:13.236Z,8.20
2023-02-21T11:25:47.349Z,7.73
2023-02-21T11:27:19.745Z,6.00
2023-02-21T11:28:54.142Z,7.47
2023-02-21T11:30:28.812Z,6.60
2023-02-21T11:32:12.775Z,7.63
2023-02-21T11:33:52.800Z,7.90
2023-02-21T11:35:28.513Z,8.00
2023-02-21T11:37:04.660Z,7.13
2023-02-21T11:38:41.465Z,6.67
2023-02-21T11:40:27.855Z,6.50
2023-02-21T11:42:04.501Z,6.50
2023-02-21T11:43:47.920Z,8.17
2023-02-21T11:45:29.214Z,7.40
2023-02-21T11:47:15.477Z,7.13
2023-02-21T11:48:58.176Z,7.40
2023-02-21T11:50:35.832Z,7.53
2023-02-21T11:52:14.147Z,7.13
2023-02-21T11:53:47.568Z,8.53
2023-02-21T11:55:25.332Z,6.37
2023-02-21T11:57:04.770Z,9.00
2023-02-21T11:58:44.747Z,6.90
2023-02-21T12:00:27.146Z,6.73
2023-02-21T12:02:25.646Z,8.00
2023-02-21T12:04:22.978Z,8.60
2023-02-21T12:06:02.712Z,7.50
2023-02-21T12:07:45.886Z,7.07
2023-02-21T12:09:27.888Z,6.97
2023-02-21T12:11:07.995Z,6.17
2023-02-21T12:12:52.673Z,6.10
2023-02-21T12:15:07.212Z,6.73
2023-02-21T12:16:49.764Z,5.90
2023-02-21T12:18:49.237Z,5.27
2023-02-21T12:20:34.164Z,6.33
2023-02-21T12:22:17.708Z,6.70
2023-02-21T12:23:59.451Z,9.37
2023-02-21T12:25:39.305Z,6.53
2023-02-21T12:27:20.905Z,7.20
2023-02-21T12:29:04.402Z,8.80
2023-02-21T12:30:52.916Z,10.23
2023-02-21T12:32:51.919Z,11.27
2023-02-21T12:34:41.126Z,11.80
2023-02-21T12:36:38.817Z,7.97
2023-02-21T12:38:18.648Z,10.67
2023-02-21T12:40:15.934Z,7.63
2023-02-21T12:42:07.177Z,9.90
2023-02-21T12:43:52.297Z,8.03
2023-02-21T12:45:41.249Z,6.83
2023-02-21T12:47:19.396Z,8.73
2023-02-21T12:48:59.535Z,8.20
2023-02-21T12:50:39.731Z,6.13
2023-02-21T12:52:17.926Z,7.07
2023-02-21T12:53:55.821Z,6.50
2023-02-21T12:55:34.188Z,7.93
2023-02-21T12:57:12.305Z,7.90
2023-02-21T12:58:51.027Z,13.03
2023-02-21T13:00:28.005Z,9.37
2023-02-21T13:02:10.588Z,8.33
2023-02-21T13:03:57.779Z,8.10
2023-02-21T13:05:39.985Z,9.67
2023-02-21T13:07:25.621Z,9.67
2023-02-21T13:09:10.566Z,7.27
2023-02-21T13:10:53.320Z,10.30
2023-02-21T13:12:31.645Z,8.00
2023-02-21T13:14:11.611Z,9.27
2023-02-21T13:15:47.683Z,10.10
2023-02-21T13:17:21.209Z,9.60
2023-02-21T13:19:00.318Z,7.67
2023-02-21T13:20:37.593Z,5.90
2023-02-21T13:23:05.737Z,7.53
2023-02-21T13:25:05.939Z,9.90
2023-02-21T13:26:55.211Z,7.50
2023-02-21T13:28:31.139Z,7.23
2023-02-21T13:30:13.004Z,8.60
2023-02-21T13:31:46.989Z,6.80
2023-02-21T13:33:29.914Z,8.07
2023-02-21T13:35:07.608Z,7.27
2023-02-21T13:36:45.969Z,9.07
2023-02-21T13:38:21.050Z,6.20
2023-02-21T13:39:58.812Z,8.97
2023-02-21T13:41:36.294Z,7.63
2023-02-21T13:43:20.298Z,6.77
2023-02-21T13:45:06.236Z,6.17
2023-02-21T13:47:02.521Z,7.23
2023-02-21T13:48:35.657Z,6.40
2023-02-21T13:50:43.171Z,7.77
2023-02-21T13:52:58.216Z,7.40
2023-02-21T13:54:32.667Z,6.97
2023-02-21T13:56:42.831Z,8.17
2023-02-21T13:58:32.114Z,6.70
2023-02-21T14:00:38.855Z,7.13
2023-02-21T14:02:22.971Z,6.90
2023-02-21T14:03:58.324Z,9.07
2023-02-21T14:06:09.715Z,7.60
2023-02-21T14:07:56.768Z,6.40
2023-02-21T14:09:30.057Z,8.53
2023-02-21T14:11:15.708Z,7.30
2023-02-21T14:12:56.176Z,8.87
2023-02-21T14:14:32.128Z,8.03
2023-02-21T14:16:22.631Z,8.97
2023-02-21T14:17:55.960Z,5.87
2023-02-21T14:19:35.860Z,7.93
2023-02-21T14:21:15.615Z,7.63
2023-02-21T14:22:53.905Z,9.03
2023-02-21T14:24:29.538Z,8.73
2023-02-21T14:26:07.096Z,7.50
2023-02-21T14:27:40.277Z,9.50
2023-02-21T14:29:17.196Z,7.77
2023-02-21T14:30:50.260Z,7.60
2023-02-21T14:32:32.835Z,8.63
2023-02-21T14:34:06.629Z,9.07
2023-02-21T14:35:47.374Z,8.47
2023-02-21T14:37:25.227Z,8.10
2023-02-21T14:38:59.138Z,9.40
2023-02-21T14:40:43.145Z,8.90
2023-02-21T14:42:30.940Z,7.93
2023-02-21T14:44:19.138Z,7.37
2023-02-21T14:46:04.095Z,7.53
2023-02-21T14:47:59.720Z,10.27
2023-02-21T14:49:57.580Z,8.57
2023-02-21T14:52:03.376Z,8.43
2023-02-21T14:54:02.798Z,7.87
2023-02-21T14:55:59.592Z,7.63
2023-02-21T14:57:48.157Z,8.23
2023-02-21T14:59:52.704Z,8.53
2023-02-21T15:01:41.998Z,7.60
2023-02-21T15:03:21.412Z,8.20
2023-02-21T15:05:01.108Z,7.40
2023-02-21T15:06:34.587Z,8.53
2023-02-21T15:08:13.886Z,7.70
2023-02-21T15:09:47.419Z,9.23
2023-02-21T15:11:26.388Z,8.07
2023-02-21T15:13:03.340Z,8.20
2023-02-21T15:14:41.818Z,8.60
2023-02-21T15:16:16.685Z,7.40
2023-02-21T15:18:03.419Z,8.43
2023-02-21T15:19:37.512Z,6.20
2023-02-21T15:21:21.555Z,7.30
2023-02-21T15:23:00.832Z,8.43
2023-02-21T15:24:34.071Z,8.30
2023-02-21T15:26:21.895Z,10.03
2023-02-21T15:28:05.372Z,7.97
2023-02-21T15:29:38.560Z,6.80
2023-02-21T15:31:13.248Z,8.30
2023-02-21T15:32:56.435Z,9.83
2023-02-21T15:34:34.962Z,7.47
2023-02-21T15:36:10.311Z,7.43
2023-02-21T15:37:45.705Z,8.63
2023-02-21T15:39:24.840Z,8.67
2023-02-21T15:41:02.789Z,6.37
2023-02-21T15:42:36.560Z,9.13
2023-02-21T15:44:15.646Z,7.40
2023-02-21T15:45:51.346Z,6.80
2023-02-21T15:47:27.201Z,7.73
2023-02-21T15:49:04.576Z,5.73
2023-02-21T15:50:42.464Z,8.70
2023-02-21T15:52:29.613Z,7.73
2023-02-21T15:54:10.574Z,8.50
2023-02-21T15:55:44.936Z,7.70
2023-02-21T15:57:24.616Z,6.77
2023-02-21T15:59:14.429Z,6.60
2023-02-21T16:00:48.676Z,8.70
2023-02-21T16:02:25.123Z,7.40
2023-02-21T16:04:20.299Z,7.47
2023-02-21T16:05:55.525Z,6.53
2023-02-21T16:07:33.904Z,8.77
2023-02-21T16:09:18.888Z,8.03
2023-02-21T16:10:52.207Z,8.00
2023-02-21T16:12:35.768Z,7.47
2023-02-21T16:14:22.048Z,7.23
2023-02-21T16:16:01.147Z,7.37
2023-02-21T16:17:38.076Z,6.47
2023-02-21T16:19:11.442Z,7.07
2023-02-21T16:20:45.595Z,6.03
2023-02-21T16:22:43.213Z,8.07
2023-02-21T16:24:32.532Z,7.60
2023-02-21T16:26:27.044Z,8.60
2023-02-21T16:28:01.123Z,8.07
2023-02-21T16:29:35.612Z,7.83
2023-02-21T16:31:12.527Z,10.17
2023-02-21T16:32:47.529Z,8.03
2023-02-21T16:34:20.605Z,6.43
2023-02-21T16:35:53.829Z,7.53
2023-02-21T16:37:28.086Z,8.10
2023-02-21T16:39:01.223Z,7.40
2023-02-21T16:40:35.523Z,7.27
2023-02-21T16:42:08.914Z,7.73
2023-02-21T16:43:42.030Z,8.50
2023-02-21T16:45:16.733Z,7.73
2023-02-21T16:46:52.173Z,8.37
2023-02-21T16:48:28.740Z,7.33
2023-02-21T16:50:01.850Z,7.80
2023-02-21T16:51:36.043Z,7.47
2023-02-21T16:53:12.623Z,6.80
2023-02-21T16:54:46.434Z,7.10
2023-02-21T16:56:19.646Z,8.23
2023-02-21T16:57:55.153Z,6.47
2023-02-21T16:59:28.207Z,6.57
2023-02-21T17:01:05.714Z,7.27
2023-02-21T17:02:38.874Z,7.20
2023-02-21T17:04:17.437Z,6.97
2023-02-21T17:05:52.478Z,9.30
2023-02-21T17:07:25.682Z,6.97
2023-02-21T17:08:59.057Z,6.23
2023-02-21T17:10:33.042Z,5.47
2023-02-21T17:12:06.864Z,9.40
2023-02-21T17:13:39.982Z,6.23
2023-02-21T17:15:13.754Z,6.87
2023-02-21T17:16:48.774Z,7.20
2023-02-21T17:18:21.832Z,6.90
2023-02-21T17:19:54.984Z,8.60
2023-02-21T17:21:28.048Z,7.30
2023-02-21T17:23:02.300Z,8.33
2023-02-21T17:24:35.379Z,7.73
2023-02-21T17:26:08.482Z,8.17
2023-02-21T17:27:41.650Z,7.57
2023-02-21T17:29:14.749Z,7.20
2023-02-21T17:30:48.560Z,7.23
2023-02-21T17:32:23.024Z,8.00
2023-02-21T17:33:56.241Z,9.47
2023-02-21T17:35:29.348Z,9.53
2023-02-21T17:37:02.631Z,9.37
2023-02-21T17:38:35.750Z,9.87
2023-02-21T17:40:09.837Z,9.10
2023-02-21T17:41:47.344Z,7.53
2023-02-21T17:43:20.526Z,7.53
2023-02-21T17:44:53.655Z,7.83
2023-02-21T17:46:26.778Z,8.50
2023-02-21T17:48:01.238Z,9.30
2023-02-21T17:49:34.576Z,7.27
2023-02-21T17:51:07.797Z,7.53
2023-02-21T17:52:41.055Z,7.87
2023-02-21T17:54:14.431Z,8.23
2023-02-21T17:55:47.485Z,8.33
2023-02-21T17:57:20.677Z,7.47
2023-02-21T17:58:55.169Z,7.50
2023-02-21T18:00:30.431Z,7.97
2023-02-21T18:02:03.786Z,7.27
2023-02-21T18:03:38.244Z,7.87
2023-02-21T18:05:11.407Z,9.00
2023-02-21T18:06:44.468Z,8.80
2023-02-21T18:08:18.375Z,9.63
2023-02-21T18:09:51.449Z,9.03
2023-02-21T18:11:26.366Z,8.13
2023-02-21T18:12:59.609Z,7.73
2023-02-21T18:14:33.102Z,9.50
2023-02-21T18:16:06.738Z,8.17
2023-02-21T18:17:40.807Z,8.07
2023-02-21T18:19:15.382Z,7.53
2023-02-21T18:20:48.943Z,9.33
2023-02-21T18:22:22.079Z,10.50
2023-02-21T18:23:55.346Z,6.83
2023-02-21T18:25:28.422Z,8.67
2023-02-21T18:27:01.635Z,8.07
2023-02-21T18:28:34.734Z,7.47
2023-02-21T18:30:08.697Z,8.60
2023-02-21T18:31:41.827Z,9.30
2023-02-21T18:33:15.314Z,6.87
2023-02-21T18:34:49.800Z,7.80
2023-02-21T18:36:23.128Z,6.93
2023-02-21T18:37:56.227Z,7.17
2023-02-21T18:39:29.508Z,7.53
2023-02-21T18:41:02.670Z,8.30
2023-02-21T18:42:36.098Z,7.03
2023-02-21T18:44:09.169Z,7.27
2023-02-21T18:45:42.218Z,9.43
2023-02-21T18:47:16.932Z,8.93
2023-02-21T18:48:51.544Z,7.67
2023-02-21T18:50:26.298Z,7.90
2023-02-21T18:52:01.310Z,8.50
2023-02-21T18:53:34.378Z,8.40
2023-02-21T18:55:08.292Z,7.83
2023-02-21T18:56:48.850Z,8.53
2023-02-21T18:58:22.015Z,7.63
2023-02-21T18:59:55.093Z,6.67
2023-02-21T19:01:28.220Z,8.47
2023-02-21T19:03:01.417Z,6.27
2023-02-21T19:04:34.525Z,7.97
2023-02-21T19:06:13.189Z,6.97
2023-02-21T19:07:46.588Z,7.13
2023-02-21T19:09:19.937Z,9.63
2023-02-21T19:10:53.827Z,7.80
2023-02-21T19:12:26.913Z,6.77
2023-02-21T19:13:59.997Z,7.37
2023-02-21T19:15:33.792Z,7.03
2023-02-21T19:17:07.961Z,8.83
2023-02-21T19:18:41.294Z,8.47
2023-02-21T19:20:14.895Z,7.00
2023-02-21T19:21:50.223Z,8.17
2023-02-21T19:23:24.195Z,7.30
2023-02-21T19:24:57.472Z,8.33
2023-02-21T19:26:31.604Z,7.57
2023-02-21T19:28:06.828Z,8.07
2023-02-21T19:29:39.907Z,8.67
2023-02-21T19:31:15.036Z,7.83
2023-02-21T19:32:48.411Z,9.10
2023-02-21T19:34:21.666Z,7.73
2023-02-21T19:35:54.737Z,9.53
2023-02-21T19:37:29.179Z,9.43
2023-02-21T19:39:02.234Z,8.53
2023-02-21T19:40:35.892Z,10.07
2023-02-21T19:42:09.138Z,9.03
2023-02-21T19:43:43.206Z,8.23
2023-02-21T19:45:16.576Z,7.77
2023-02-21T19:46:49.690Z,7.40
2023-02-21T19:48:22.782Z,7.40
2023-02-21T19:49:55.963Z,8.83
2023-02-21T19:51:32.381Z,8.40
2023-02-21T19:53:07.526Z,9.10
2023-02-21T19:54:40.639Z,8.37
2023-02-21T19:56:13.729Z,8.80
2023-02-21T19:57:46.887Z,8.00
2023-02-21T19:59:20.205Z,8.13
2023-02-21T20:00:53.422Z,8.13
2023-02-21T20:02:26.850Z,9.13
2023-02-21T20:04:00.228Z,10.27
2023-02-21T20:05:33.374Z,9.37
2023-02-21T20:07:06.520Z,9.73
2023-02-21T20:08:43.896Z,7.60
2023-02-21T20:10:19.112Z,8.20
2023-02-21T20:11:52.252Z,8.77
2023-02-21T20:13:26.076Z,9.13
2023-02-21T20:14:59.208Z,9.10
2023-02-21T20:16:34.065Z,11.37
2023-02-21T20:18:07.285Z,12.17
2023-02-21T20:19:40.355Z,17.00
2023-02-21T20:21:19.683Z,15.17
2023-02-21T20:22:52.765Z,21.07
2023-02-21T20:24:27.208Z,23.70
2023-02-21T20:26:00.388Z,22.87
2023-02-21T20:27:33.521Z,20.97
2023-02-21T20:29:07.071Z,14.07
2023-02-21T20:30:40.281Z,12.60
2023-02-21T20:32:15.718Z,13.00
2023-02-21T20:33:49.451Z,9.10
2023-02-21T20:35:24.625Z,9.70
2023-02-21T20:36:58.311Z,8.83
2023-02-21T20:38:31.633Z,8.90
2023-02-21T20:40:10.265Z,8.77
2023-02-21T20:41:43.443Z,8.43
2023-02-21T20:43:16.535Z,9.93
2023-02-21T20:44:49.901Z,8.53
2023-02-21T20:46:23.728Z,8.47
2023-02-21T20:47:57.104Z,8.20
2023-02-21T20:49:31.131Z,9.90
2023-02-21T20:51:06.328Z,8.80
2023-02-21T20:52:41.184Z,8.87
2023-02-21T20:54:19.996Z,10.00
2023-02-21T20:55:54.562Z,9.73
2023-02-21T20:57:27.790Z,8.80
2023-02-21T20:59:01.260Z,10.57
2023-02-21T21:00:37.685Z,8.37
2023-02-21T21:02:10.934Z,9.60
2023-02-21T21:03:44.007Z,9.77
2023-02-21T21:05:17.171Z,10.13
2023-02-21T21:06:50.964Z,10.67
2023-02-21T21:08:24.284Z,8.53
2023-02-21T21:09:57.407Z,10.93
2023-02-21T21:11:33.032Z,10.77
2023-02-21T21:13:06.563Z,9.90
2023-02-21T21:14:43.025Z,9.13
2023-02-21T21:16:16.701Z,9.47
2023-02-21T21:17:50.383Z,7.63
2023-02-21T21:19:25.964Z,8.07
2023-02-21T21:20:59.093Z,10.10
2023-02-21T21:22:32.301Z,8.13
2023-02-21T21:24:07.078Z,8.03
2023-02-21T21:25:40.268Z,8.77
2023-02-21T21:27:15.359Z,6.57
2023-02-21T21:28:48.569Z,7.80
2023-02-21T21:30:23.425Z,8.97
2023-02-21T21:31:56.637Z,7.73
2023-02-21T21:33:29.807Z,7.57
2023-02-21T21:35:06.684Z,6.60
2023-02-21T21:36:39.806Z,7.73
2023-02-21T21:38:15.077Z,7.43
2023-02-21T21:39:54.278Z,7.10
2023-02-21T21:41:27.686Z,8.07
2023-02-21T21:43:06.821Z,7.80
2023-02-21T21:44:45.088Z,6.17
2023-02-21T21:46:19.799Z,6.27
2023-02-21T21:47:54.233Z,7.13
2023-02-21T21:49:28.142Z,6.43